aviador You're here:

GMFF Decoded Metar

FEZ in MOROCCO
Report Time2017-10-17 11:00:00
UTC Time2017-10-17 11:15:33
Flight Rules vfr VFR
WindVRB at 02 kt
Visibility9999 m
Phenomena:N/A
Clouds:Few 033 Hf
Broken 100 Hf
Expected CloudBase > 8,400 ft AGL from Temp-Dew spread
Ceiling10,000 ft
Temp28°C (ISA +17)
Dew Point07°C (26% RH)
Heat Index26.9°C
AAT26.5°C
QNH1024 hPa
Density Alt3,596 ft
Elevation1,900 ft
Report Wrong Elevation
Raw Report
GMFF 171100Z VRB02KT 9999 FEW033 BKN100 28/07 Q1024 NOSIG=

Extra information for GMFF:More info

Metar Taf Metar & Taf Last 4 Metars F.Rules Stats Wind Profile Meteogram Temp Stats Airport Information Weather charts Add Link Nearby VenuesMetar ALERT Operation Metar Decoded Social comments